weather.gov     
National Weather Service

Terminal Aerodrome Forecast
NWS Homepage
This page is being discontinued on March 12, 2014.
The same data is available at this site. Please update your bookmarks.
Thank you, and we apologize for the inconvenience.
Please send an email to SR-SRH.Webmaster@noaa.gov with any concerns.


Current Version
Previous Version:    01  02  03  04  05  06  07  08  09  10  11  12  13  14  15  16  17  18  19  20  21  22  23  24  25  26  27  28  29  30  
   31  32  33  
[Printable]
156
FTUS42 KJAX 300540
TAFJAX
TAF
KJAX 300540Z 3006/3106 25006KT P6SM SCT100 BKN250
     FM301000 25007KT P6SM SCT020 BKN040 WS015/29035KT
      TEMPO 3011/3014 BKN020
     FM301400 32012G20KT P6SM FEW020 BKN250
     FM301800 33010KT P6SM FEW250=




156
FTUS42 KJAX 300540
TAFJAX
TAF
KJAX 300540Z 3006/3106 25006KT P6SM SCT100 BKN250
     FM301000 25007KT P6SM SCT020 BKN040 WS015/29035KT
      TEMPO 3011/3014 BKN020
     FM301400 32012G20KT P6SM FEW020 BKN250
     FM301800 33010KT P6SM FEW250=


U.S. Dept. of Commerce
NOAA National Weather Service
1325 East West Highway
Silver Spring, MD 20910
E-mail: w-nws.webmaster@noaa.gov
Page last modified: May 16, 2007
NATIONAL WEATHER SERVICE: for Safety, for Work, for Fun - FOR LIFE